createdAt,value
2018-04-25T08:51:55.429Z,99759.70
2018-04-25T08:54:22.084Z,99767.63
2018-04-25T08:56:48.578Z,99758.39
2018-04-25T08:59:15.017Z,99755.16
2018-04-25T09:01:41.429Z,99761.01
2018-04-25T09:04:07.854Z,99760.98
2018-04-25T09:06:34.268Z,99758.09
2018-04-25T09:09:00.669Z,99754.94
2018-04-25T09:11:27.062Z,99754.62
2018-04-25T09:13:53.461Z,99748.87
2018-04-25T09:16:20.823Z,99753.45
2018-04-25T09:18:47.234Z,99744.50
2018-04-25T09:21:13.625Z,99753.13
2018-04-25T09:23:40.120Z,99741.34
2018-04-25T09:26:06.503Z,99740.03
2018-04-25T09:28:32.906Z,99732.76
2018-04-25T09:30:59.498Z,99732.25
2018-04-25T09:33:26.469Z,99728.81
2018-04-25T09:35:53.043Z,99725.57
2018-04-25T09:38:19.445Z,99725.33
2018-04-25T09:40:45.857Z,99723.80
2018-04-25T09:43:12.454Z,99725.13
2018-04-25T09:45:38.950Z,99722.28
2018-04-25T09:48:05.463Z,99717.13
2018-04-25T09:50:32.079Z,99719.36
2018-04-25T09:52:58.480Z,99717.76
2018-04-25T09:55:25.088Z,99707.38
2018-04-25T09:57:51.610Z,99704.44
2018-04-25T10:00:18.207Z,99705.77
2018-04-25T10:02:44.839Z,99708.47
2018-04-25T10:05:11.205Z,99705.68
2018-04-25T10:07:37.667Z,99704.25
2018-04-25T10:10:04.083Z,99697.41
2018-04-25T10:12:30.609Z,99693.94
2018-04-25T10:14:57.052Z,99692.44
2018-04-25T10:17:23.585Z,99690.41
2018-04-25T10:19:50.216Z,99684.83
2018-04-25T10:22:16.606Z,99682.48
2018-04-25T10:24:42.985Z,99678.84
2018-04-25T10:27:09.366Z,99672.08
2018-04-25T10:29:35.797Z,99667.01
2018-04-25T10:32:02.364Z,99668.63
2018-04-25T10:34:28.779Z,99668.75
2018-04-25T10:36:55.550Z,99661.77
2018-04-25T10:39:21.912Z,99661.08
2018-04-25T10:41:48.534Z,99660.66
2018-04-25T10:44:15.043Z,99654.45
2018-04-25T10:46:41.359Z,99652.39
2018-04-25T10:49:07.770Z,99650.09
2018-04-25T10:51:34.419Z,99647.29
2018-04-25T10:54:00.811Z,99643.55
2018-04-25T10:56:27.296Z,99641.94
2018-04-25T10:58:53.665Z,99639.55
2018-04-25T11:01:20.107Z,99641.92
2018-04-25T11:03:46.597Z,99637.00
2018-04-25T11:06:12.974Z,99637.63
2018-04-25T11:08:39.425Z,99628.30
2018-04-25T11:11:05.970Z,99624.44
2018-04-25T11:13:32.348Z,99626.56
2018-04-25T11:16:03.886Z,99623.60
2018-04-25T11:18:31.490Z,99621.48
2018-04-25T11:20:58.629Z,99616.58
2018-04-25T11:23:27.080Z,99615.80
2018-04-25T11:25:53.810Z,99613.02
2018-04-25T11:28:20.293Z,99607.90
2018-04-25T11:30:46.770Z,99616.78
2018-04-25T11:33:13.179Z,99601.39
2018-04-25T11:35:39.584Z,99599.27
2018-04-25T11:38:06.030Z,99589.25
2018-04-25T11:40:32.425Z,99583.19
2018-04-25T11:42:58.806Z,99584.63
2018-04-25T11:45:25.178Z,99578.97
2018-04-25T11:47:51.744Z,99573.62
2018-04-25T11:50:18.318Z,99572.17
2018-04-25T11:52:44.750Z,99576.16
2018-04-25T11:55:11.141Z,99568.74
2018-04-25T11:57:37.578Z,99562.69
2018-04-25T12:00:03.997Z,99564.20
2018-04-25T12:02:30.432Z,99566.50
2018-04-25T12:04:56.935Z,99564.36
2018-04-25T12:07:23.321Z,99569.52
2018-04-25T12:09:49.737Z,99566.03
2018-04-25T12:12:16.376Z,99571.21
2018-04-25T12:14:43.005Z,99568.37
2018-04-25T12:17:09.409Z,99564.55
2018-04-25T12:19:35.881Z,99563.21
2018-04-25T12:22:02.484Z,99562.56
2018-04-25T12:24:29.029Z,99556.50
2018-04-25T12:26:55.435Z,99555.98
2018-04-25T12:29:21.856Z,99558.92
2018-04-25T12:31:48.482Z,99561.10
2018-04-25T12:34:14.961Z,99561.17
2018-04-25T12:36:41.323Z,99565.67
2018-04-25T12:39:07.758Z,99557.41
2018-04-25T12:41:34.227Z,99554.88
2018-04-25T12:44:00.672Z,99560.72
2018-04-25T12:46:27.070Z,99549.44
2018-04-25T12:48:53.481Z,99548.82
2018-04-25T12:51:19.909Z,99548.73
2018-04-25T12:53:46.365Z,99544.23
2018-04-25T12:56:12.854Z,99545.59
2018-04-25T12:58:39.326Z,99544.63
2018-04-25T13:01:05.742Z,99540.50
2018-04-25T13:03:32.166Z,99544.46
2018-04-25T13:05:58.726Z,99542.20
2018-04-25T13:08:25.118Z,99545.19
2018-04-25T13:10:51.470Z,99535.95
2018-04-25T13:13:17.959Z,99532.16
2018-04-25T13:15:44.363Z,99529.59
2018-04-25T13:18:11.319Z,99526.05
2018-04-25T13:20:37.812Z,99523.14
2018-04-25T13:23:04.234Z,99520.59
2018-04-25T13:25:30.843Z,99522.00
2018-04-25T13:27:57.287Z,99512.98
2018-04-25T13:30:23.703Z,99518.87
2018-04-25T13:32:50.216Z,99513.61
2018-04-25T13:35:16.623Z,99516.74
2018-04-25T13:37:43.159Z,99512.84
2018-04-25T13:40:09.497Z,99508.71
2018-04-25T13:42:35.911Z,99498.98
2018-04-25T13:45:02.332Z,99501.67
2018-04-25T13:47:28.804Z,99496.67
2018-04-25T13:49:55.248Z,99490.52
2018-04-25T13:52:21.588Z,99491.42
2018-04-25T13:54:47.944Z,99485.91
2018-04-25T13:57:14.353Z,99477.49
2018-04-25T13:59:40.857Z,99469.98
2018-04-25T14:02:07.272Z,99476.97
2018-04-25T14:04:34.002Z,99473.18
2018-04-25T14:07:00.435Z,99464.59
2018-04-25T14:09:29.871Z,99463.84
2018-04-25T14:11:57.671Z,99462.34
2018-04-25T14:14:24.101Z,99463.45
2018-04-25T14:16:50.493Z,99466.06
2018-04-25T14:19:16.881Z,99452.69
2018-04-25T14:21:43.294Z,99457.50
2018-04-25T14:24:09.654Z,99454.91
2018-04-25T14:26:36.086Z,99448.35
2018-04-25T14:29:02.689Z,99447.20
2018-04-25T14:31:29.059Z,99447.91
2018-04-25T14:33:55.494Z,99446.00
2018-04-25T14:36:22.299Z,99439.34
2018-04-25T14:38:48.783Z,99444.39
2018-04-25T14:41:15.319Z,99441.14
2018-04-25T14:43:41.786Z,99434.05
2018-04-25T14:46:08.289Z,99437.75
2018-04-25T14:48:34.702Z,99437.48
2018-04-25T14:51:01.091Z,99436.50
2018-04-25T14:53:27.590Z,99435.66
2018-04-25T14:55:53.997Z,99435.15
2018-04-25T14:58:20.394Z,99434.09
2018-04-25T15:00:46.800Z,99436.70
2018-04-25T15:03:13.220Z,99435.72
2018-04-25T15:05:39.630Z,99437.85
2018-04-25T15:08:06.168Z,99434.17
2018-04-25T15:10:32.582Z,99435.08
2018-04-25T15:12:59.058Z,99441.36
2018-04-25T15:15:25.495Z,99443.33
2018-04-25T15:17:52.078Z,99440.36
2018-04-25T15:20:18.507Z,99439.09
2018-04-25T15:22:45.020Z,99437.10
2018-04-25T15:25:11.467Z,99434.63
2018-04-25T15:27:38.465Z,99438.18
2018-04-25T15:30:04.859Z,99436.11
2018-04-25T15:32:31.278Z,99441.00
2018-04-25T15:34:57.713Z,99435.58
2018-04-25T15:37:24.369Z,99432.25
2018-04-25T15:39:50.778Z,99431.75
2018-04-25T15:42:17.246Z,99435.31
2018-04-25T15:44:43.819Z,99425.20
2018-04-25T15:47:11.316Z,99421.23
2018-04-25T15:49:37.660Z,99414.86
2018-04-25T15:52:04.104Z,99413.73
2018-04-25T15:54:30.501Z,99413.37
2018-04-25T15:56:56.882Z,99413.73
2018-04-25T15:59:23.344Z,99410.95
2018-04-25T16:01:49.846Z,99411.03
2018-04-25T16:04:16.239Z,99412.66
2018-04-25T16:06:42.611Z,99407.83
2018-04-25T16:09:09.076Z,99400.13
2018-04-25T16:11:35.611Z,99399.64
2018-04-25T16:14:02.046Z,99398.66
2018-04-25T16:16:28.447Z,99398.35
2018-04-25T16:18:54.851Z,99392.48
2018-04-25T16:21:21.222Z,99400.20
2018-04-25T16:23:47.831Z,99399.80
2018-04-25T16:26:14.520Z,99404.42
2018-04-25T16:28:40.994Z,99402.34
2018-04-25T16:31:07.429Z,99399.23
2018-04-25T16:33:35.105Z,99403.50
2018-04-25T16:36:03.002Z,99405.59
2018-04-25T16:38:29.813Z,99399.07
2018-04-25T16:40:56.250Z,99400.11
2018-04-25T16:43:22.933Z,99404.85
2018-04-25T16:45:50.391Z,99408.18
2018-04-25T16:48:17.003Z,99411.20
2018-04-25T16:50:43.463Z,99412.39
2018-04-25T16:53:10.101Z,99410.13
2018-04-25T16:55:36.637Z,99406.06
2018-04-25T16:58:03.770Z,99410.72
2018-04-25T17:00:30.562Z,99409.93
2018-04-25T17:03:01.753Z,99409.00
2018-04-25T17:05:28.517Z,99413.05
2018-04-25T17:07:55.158Z,99410.91
2018-04-25T17:10:21.587Z,99416.38
2018-04-25T17:12:48.329Z,99412.06
2018-04-25T17:15:15.171Z,99419.25
2018-04-25T17:17:41.559Z,99431.30
2018-04-25T17:20:07.935Z,99426.41
2018-04-25T17:22:34.340Z,99432.38
2018-04-25T17:25:00.833Z,99430.11
2018-04-25T17:27:27.261Z,99428.69
2018-04-25T17:29:53.774Z,99427.45
2018-04-25T17:32:20.187Z,99429.72
2018-04-25T17:34:46.566Z,99426.68
2018-04-25T17:37:12.952Z,99432.36
2018-04-25T17:39:39.687Z,99440.81
2018-04-25T17:42:06.110Z,99435.06
2018-04-25T17:44:32.502Z,99449.17
2018-04-25T17:46:58.926Z,99448.43
2018-04-25T17:49:25.309Z,99449.64
2018-04-25T17:51:51.766Z,99452.12
2018-04-25T17:54:18.390Z,99452.87
2018-04-25T17:56:44.786Z,99462.64
2018-04-25T17:59:11.431Z,99456.64
2018-04-25T18:01:37.777Z,99465.72
2018-04-25T18:04:04.142Z,99468.16
2018-04-25T18:06:30.499Z,99467.49
2018-04-25T18:08:56.926Z,99474.37
2018-04-25T18:11:23.373Z,99480.95
2018-04-25T18:13:49.762Z,99482.45
2018-04-25T18:16:16.497Z,99499.34
2018-04-25T18:18:43.106Z,99498.66
2018-04-25T18:21:09.523Z,99499.34
2018-04-25T18:23:36.112Z,99501.95
2018-04-25T18:26:02.538Z,99502.25
2018-04-25T18:28:28.971Z,99499.40
2018-04-25T18:30:55.485Z,99502.17
2018-04-25T18:33:21.878Z,99500.98
2018-04-25T18:35:48.708Z,99494.35
2018-04-25T18:38:15.243Z,99493.86
2018-04-25T18:40:42.239Z,99491.26
2018-04-25T18:43:08.598Z,99493.11
2018-04-25T18:45:35.009Z,99491.31
2018-04-25T18:48:02.418Z,99492.00
2018-04-25T18:50:28.793Z,99488.79
2018-04-25T18:52:55.180Z,99491.16
2018-04-25T18:55:21.578Z,99495.41
2018-04-25T18:57:48.163Z,99494.74
2018-04-25T19:00:14.567Z,99493.62
2018-04-25T19:02:41.115Z,99496.27
2018-04-25T19:05:07.522Z,99493.16
2018-04-25T19:07:33.891Z,99491.72
2018-04-25T19:10:00.346Z,99492.28
2018-04-25T19:12:26.745Z,99499.41
2018-04-25T19:14:53.131Z,99502.56
2018-04-25T19:17:19.533Z,99508.53
2018-04-25T19:19:45.893Z,99507.74
2018-04-25T19:22:12.335Z,99508.66
2018-04-25T19:24:38.735Z,99511.52
2018-04-25T19:27:05.094Z,99506.84
2018-04-25T19:29:31.493Z,99512.73
2018-04-25T19:31:57.950Z,99512.13
2018-04-25T19:34:24.370Z,99520.50
2018-04-25T19:36:50.772Z,99520.37
2018-04-25T19:39:17.178Z,99515.09
2018-04-25T19:41:43.614Z,99509.45
2018-04-25T19:44:10.176Z,99516.39
2018-04-25T19:46:36.546Z,99513.66
2018-04-25T19:49:03.102Z,99514.11
2018-04-25T19:51:29.579Z,99507.73
2018-04-25T19:53:55.995Z,99516.00
2018-04-25T19:56:22.415Z,99511.09
2018-04-25T19:58:48.776Z,99515.92
2018-04-25T20:01:15.147Z,99516.22
2018-04-25T20:03:41.530Z,99511.13
2018-04-25T20:06:08.027Z,99510.67
2018-04-25T20:08:34.457Z,99516.83
2018-04-25T20:11:00.950Z,99519.66
2018-04-25T20:13:27.410Z,99517.58
2018-04-25T20:15:53.891Z,99514.99
2018-04-25T20:18:28.475Z,99518.23
2018-04-25T20:20:54.870Z,99511.99
2018-04-25T20:23:21.233Z,99515.16
2018-04-25T20:25:47.594Z,99517.80
2018-04-25T20:28:14.041Z,99518.66
2018-04-25T20:30:40.399Z,99514.53
2018-04-25T20:33:06.815Z,99510.52
2018-04-25T20:35:33.175Z,99508.98
2018-04-25T20:37:59.573Z,99510.20
2018-04-25T20:40:25.999Z,99520.30
2018-04-25T20:42:52.347Z,99517.02
2018-04-25T20:45:18.828Z,99520.30
2018-04-25T20:47:45.286Z,99519.16
2018-04-25T20:50:11.690Z,99518.20
2018-04-25T20:52:38.130Z,99523.22
2018-04-25T20:55:04.602Z,99512.21
2018-04-25T20:57:31.003Z,99515.97
2018-04-25T20:59:57.535Z,99517.71
2018-04-25T21:02:23.915Z,99512.81
2018-04-25T21:04:50.321Z,99518.87
2018-04-25T21:07:16.804Z,99522.59
2018-04-25T21:09:43.229Z,99523.92
2018-04-25T21:12:09.617Z,99529.11
2018-04-25T21:14:36.026Z,99529.15
2018-04-25T21:17:02.407Z,99530.42
2018-04-25T21:19:28.822Z,99530.22
2018-04-25T21:21:55.225Z,99526.77
2018-04-25T21:24:21.669Z,99530.67
2018-04-25T21:26:48.117Z,99532.92
2018-04-25T21:29:14.598Z,99533.67
2018-04-25T21:31:40.998Z,99532.55
2018-04-25T21:34:07.414Z,99532.55
2018-04-25T21:36:33.816Z,99530.38
2018-04-25T21:39:00.217Z,99533.41
2018-04-25T21:41:26.684Z,99527.14
2018-04-25T21:43:53.232Z,99529.14
2018-04-25T21:46:19.607Z,99531.02
2018-04-25T21:48:46.043Z,99537.42
2018-04-25T21:51:12.503Z,99535.46
2018-04-25T21:53:39.037Z,99536.45
2018-04-25T21:56:05.468Z,99531.80
2018-04-25T21:58:31.826Z,99531.80
2018-04-25T22:00:58.257Z,99529.55
2018-04-25T22:03:24.705Z,99528.13
2018-04-25T22:05:51.111Z,99523.14
2018-04-25T22:08:17.638Z,99521.95
2018-04-25T22:10:44.048Z,99526.99
2018-04-25T22:13:10.530Z,99533.98
2018-04-25T22:15:36.913Z,99535.52
2018-04-25T22:18:03.309Z,99530.58
2018-04-25T22:20:29.676Z,99532.98
2018-04-25T22:22:56.074Z,99529.56
2018-04-25T22:25:22.466Z,99533.44
2018-04-25T22:27:48.885Z,99541.17
2018-04-25T22:30:15.491Z,99534.36
2018-04-25T22:32:41.911Z,99532.05
2018-04-25T22:35:08.299Z,99529.88
2018-04-25T22:37:34.792Z,99524.55
2018-04-25T22:40:01.202Z,99528.55
2018-04-25T22:42:27.660Z,99531.70
2018-04-25T22:44:54.165Z,99529.41
2018-04-25T22:47:20.501Z,99528.30
2018-04-25T22:49:46.944Z,99523.38
2018-04-25T22:52:13.337Z,99526.11
2018-04-25T22:54:39.696Z,99524.20
2018-04-25T22:57:06.134Z,99525.73
2018-04-25T22:59:32.502Z,99525.17
2018-04-25T23:01:59.049Z,99521.45
2018-04-25T23:04:25.403Z,99518.70
2018-04-25T23:06:51.742Z,99530.14
2018-04-25T23:09:18.403Z,99530.03
2018-04-25T23:11:44.877Z,99530.55
2018-04-25T23:14:11.261Z,99527.40
2018-04-25T23:16:37.647Z,99524.77
2018-04-25T23:19:04.046Z,99525.58
2018-04-25T23:21:30.468Z,99526.95
2018-04-25T23:23:56.850Z,99519.47
2018-04-25T23:26:23.259Z,99520.16
2018-04-25T23:28:49.647Z,99516.16
2018-04-25T23:31:16.098Z,99521.99
2018-04-25T23:33:42.504Z,99513.94
2018-04-25T23:36:08.937Z,99519.25
2018-04-25T23:38:35.350Z,99519.98
2018-04-25T23:41:01.729Z,99516.83
2018-04-25T23:43:28.153Z,99513.05
2018-04-25T23:45:54.574Z,99517.30
2018-04-25T23:48:20.979Z,99507.39
2018-04-25T23:50:47.400Z,99515.03
2018-04-25T23:53:13.767Z,99512.59
2018-04-25T23:55:40.127Z,99511.72
2018-04-25T23:58:06.540Z,99505.66
